sensor_id;sensor_type;location;lat;lon;timestamp;temperature;humidity
28947;DHT22;16052;50.930;5.326;2023-04-06T00:01:45;9.10;1.00
28947;DHT22;16052;50.930;5.326;2023-04-06T00:04:12;8.90;1.00
28947;DHT22;16052;50.930;5.326;2023-04-06T00:06:37;8.80;1.00
28947;DHT22;16052;50.930;5.326;2023-04-06T00:09:03;8.90;1.00
28947;DHT22;16052;50.930;5.326;2023-04-06T00:11:29;9.00;1.00
28947;DHT22;16052;50.930;5.326;2023-04-06T00:13:54;9.00;1.00
28947;DHT22;16052;50.930;5.326;2023-04-06T00:16:20;9.10;1.00
28947;DHT22;16052;50.930;5.326;2023-04-06T00:18:46;9.20;1.00
28947;DHT22;16052;50.930;5.326;2023-04-06T00:21:14;9.10;1.00
28947;DHT22;16052;50.930;5.326;2023-04-06T00:23:40;8.80;1.00
28947;DHT22;16052;50.930;5.326;2023-04-06T00:26:06;8.70;1.00
28947;DHT22;16052;50.930;5.326;2023-04-06T00:28:32;8.50;1.00
28947;DHT22;16052;50.930;5.326;2023-04-06T00:30:57;8.40;1.00
28947;DHT22;16052;50.930;5.326;2023-04-06T00:33:23;8.40;1.00
28947;DHT22;16052;50.930;5.326;2023-04-06T00:35:49;8.40;1.00
28947;DHT22;16052;50.930;5.326;2023-04-06T00:38:15;8.60;1.00
28947;DHT22;16052;50.930;5.326;2023-04-06T00:40:41;8.50;1.00
28947;DHT22;16052;50.930;5.326;2023-04-06T00:43:10;8.40;1.00
28947;DHT22;16052;50.930;5.326;2023-04-06T00:45:38;8.40;1.00
28947;DHT22;16052;50.930;5.326;2023-04-06T00:48:04;8.40;1.00
28947;DHT22;16052;50.930;5.326;2023-04-06T00:50:30;8.40;1.00
28947;DHT22;16052;50.930;5.326;2023-04-06T00:52:56;8.40;1.00
28947;DHT22;16052;50.930;5.326;2023-04-06T00:55:22;8.30;1.00
28947;DHT22;16052;50.930;5.326;2023-04-06T00:57:47;8.50;1.00
28947;DHT22;16052;50.930;5.326;2023-04-06T01:00:15;8.30;1.00
28947;DHT22;16052;50.930;5.326;2023-04-06T01:02:41;8.30;1.00
28947;DHT22;16052;50.930;5.326;2023-04-06T01:05:07;8.10;1.00
28947;DHT22;16052;50.930;5.326;2023-04-06T01:07:33;8.40;1.00
28947;DHT22;16052;50.930;5.326;2023-04-06T01:09:58;8.10;1.00
28947;DHT22;16052;50.930;5.326;2023-04-06T01:12:24;7.90;1.00
28947;DHT22;16052;50.930;5.326;2023-04-06T01:14:50;8.10;1.00
28947;DHT22;16052;50.930;5.326;2023-04-06T01:17:16;8.10;1.00
28947;DHT22;16052;50.930;5.326;2023-04-06T01:19:42;8.50;1.00
28947;DHT22;16052;50.930;5.326;2023-04-06T01:22:07;8.70;1.00
28947;DHT22;16052;50.930;5.326;2023-04-06T01:24:33;8.90;1.00
28947;DHT22;16052;50.930;5.326;2023-04-06T01:26:59;8.90;1.00
28947;DHT22;16052;50.930;5.326;2023-04-06T01:29:26;8.90;1.00
28947;DHT22;16052;50.930;5.326;2023-04-06T01:31:51;8.80;1.00
28947;DHT22;16052;50.930;5.326;2023-04-06T01:34:17;8.60;1.00
28947;DHT22;16052;50.930;5.326;2023-04-06T01:36:43;8.40;1.00
28947;DHT22;16052;50.930;5.326;2023-04-06T01:39:08;8.40;1.00
28947;DHT22;16052;50.930;5.326;2023-04-06T01:41:35;8.60;1.00
28947;DHT22;16052;50.930;5.326;2023-04-06T01:44:01;8.80;1.00
28947;DHT22;16052;50.930;5.326;2023-04-06T01:46:27;8.90;1.00
28947;DHT22;16052;50.930;5.326;2023-04-06T01:48:53;8.90;1.00
28947;DHT22;16052;50.930;5.326;2023-04-06T01:51:19;9.10;1.00
28947;DHT22;16052;50.930;5.326;2023-04-06T01:53:44;9.10;1.00
28947;DHT22;16052;50.930;5.326;2023-04-06T01:56:10;9.10;1.00
28947;DHT22;16052;50.930;5.326;2023-04-06T01:58:36;9.00;1.00
28947;DHT22;16052;50.930;5.326;2023-04-06T02:01:02;8.90;1.00
28947;DHT22;16052;50.930;5.326;2023-04-06T02:03:27;8.90;1.00
28947;DHT22;16052;50.930;5.326;2023-04-06T02:05:53;8.40;1.00
28947;DHT22;16052;50.930;5.326;2023-04-06T02:08:19;8.40;1.00
28947;DHT22;16052;50.930;5.326;2023-04-06T02:10:44;8.30;1.00
28947;DHT22;16052;50.930;5.326;2023-04-06T02:13:10;8.00;1.00
28947;DHT22;16052;50.930;5.326;2023-04-06T02:15:36;7.70;1.00
28947;DHT22;16052;50.930;5.326;2023-04-06T02:18:01;7.80;1.00
28947;DHT22;16052;50.930;5.326;2023-04-06T02:20:27;8.00;1.00
28947;DHT22;16052;50.930;5.326;2023-04-06T02:22:53;8.20;1.00
28947;DHT22;16052;50.930;5.326;2023-04-06T02:25:18;8.10;1.00
28947;DHT22;16052;50.930;5.326;2023-04-06T02:27:44;8.00;1.00
28947;DHT22;16052;50.930;5.326;2023-04-06T02:30:10;7.80;1.00
28947;DHT22;16052;50.930;5.326;2023-04-06T02:32:36;7.80;1.00
28947;DHT22;16052;50.930;5.326;2023-04-06T02:35:02;7.80;1.00
28947;DHT22;16052;50.930;5.326;2023-04-06T02:37:27;7.80;1.00
28947;DHT22;16052;50.930;5.326;2023-04-06T02:39:53;7.70;1.00
28947;DHT22;16052;50.930;5.326;2023-04-06T02:42:19;7.70;1.00
28947;DHT22;16052;50.930;5.326;2023-04-06T02:44:44;7.60;1.00
28947;DHT22;16052;50.930;5.326;2023-04-06T02:47:10;7.50;1.00
28947;DHT22;16052;50.930;5.326;2023-04-06T02:49:36;7.40;1.00
28947;DHT22;16052;50.930;5.326;2023-04-06T02:52:02;7.50;1.00
28947;DHT22;16052;50.930;5.326;2023-04-06T02:54:28;7.20;1.10
28947;DHT22;16052;50.930;5.326;2023-04-06T02:56:54;7.10;6.10
28947;DHT22;16052;50.930;5.326;2023-04-06T02:59:20;7.10;8.40
28947;DHT22;16052;50.930;5.326;2023-04-06T03:01:45;7.10;13.10
28947;DHT22;16052;50.930;5.326;2023-04-06T03:04:11;7.20;8.30
28947;DHT22;16052;50.930;5.326;2023-04-06T03:06:37;7.10;12.00
28947;DHT22;16052;50.930;5.326;2023-04-06T03:09:03;7.10;16.70
28947;DHT22;16052;50.930;5.326;2023-04-06T03:11:29;7.30;11.10
28947;DHT22;16052;50.930;5.326;2023-04-06T03:13:55;7.50;2.10
28947;DHT22;16052;50.930;5.326;2023-04-06T03:16:21;7.40;2.80
28947;DHT22;16052;50.930;5.326;2023-04-06T03:18:46;7.40;2.00
28947;DHT22;16052;50.930;5.326;2023-04-06T03:21:13;7.50;1.00
28947;DHT22;16052;50.930;5.326;2023-04-06T03:23:42;7.40;1.20
28947;DHT22;16052;50.930;5.326;2023-04-06T03:26:08;7.40;1.00
28947;DHT22;16052;50.930;5.326;2023-04-06T03:28:33;7.20;1.80
28947;DHT22;16052;50.930;5.326;2023-04-06T03:30:59;6.80;20.30
28947;DHT22;16052;50.930;5.326;2023-04-06T03:33:25;6.70;25.40
28947;DHT22;16052;50.930;5.326;2023-04-06T03:35:54;6.70;25.50
28947;DHT22;16052;50.930;5.326;2023-04-06T03:38:20;6.80;22.50
28947;DHT22;16052;50.930;5.326;2023-04-06T03:40:45;6.70;25.70
28947;DHT22;16052;50.930;5.326;2023-04-06T03:43:11;6.60;28.10
28947;DHT22;16052;50.930;5.326;2023-04-06T03:45:37;6.60;29.00
28947;DHT22;16052;50.930;5.326;2023-04-06T03:48:03;6.60;29.80
28947;DHT22;16052;50.930;5.326;2023-04-06T03:50:29;6.60;29.50
28947;DHT22;16052;50.930;5.326;2023-04-06T03:52:54;6.60;30.70
28947;DHT22;16052;50.930;5.326;2023-04-06T03:55:20;6.60;32.10
28947;DHT22;16052;50.930;5.326;2023-04-06T03:57:46;6.70;30.30
28947;DHT22;16052;50.930;5.326;2023-04-06T04:00:12;6.70;28.70
28947;DHT22;16052;50.930;5.326;2023-04-06T04:02:38;6.80;24.00
28947;DHT22;16052;50.930;5.326;2023-04-06T04:05:04;6.70;25.20
28947;DHT22;16052;50.930;5.326;2023-04-06T04:07:30;6.60;30.00
28947;DHT22;16052;50.930;5.326;2023-04-06T04:09:56;6.60;33.90
28947;DHT22;16052;50.930;5.326;2023-04-06T04:12:21;6.70;31.40
28947;DHT22;16052;50.930;5.326;2023-04-06T04:14:47;6.70;29.20
28947;DHT22;16052;50.930;5.326;2023-04-06T04:17:12;6.80;28.70
28947;DHT22;16052;50.930;5.326;2023-04-06T04:19:38;6.80;29.10
28947;DHT22;16052;50.930;5.326;2023-04-06T04:22:04;6.90;26.00
28947;DHT22;16052;50.930;5.326;2023-04-06T04:24:30;6.90;24.40
28947;DHT22;16052;50.930;5.326;2023-04-06T04:26:56;6.80;25.60
28947;DHT22;16052;50.930;5.326;2023-04-06T04:29:22;6.80;25.50
28947;DHT22;16052;50.930;5.326;2023-04-06T04:31:48;6.80;24.20
28947;DHT22;16052;50.930;5.326;2023-04-06T04:34:15;6.70;25.90
28947;DHT22;16052;50.930;5.326;2023-04-06T04:36:41;6.50;32.40
28947;DHT22;16052;50.930;5.326;2023-04-06T04:39:10;6.60;30.30
28947;DHT22;16052;50.930;5.326;2023-04-06T04:41:35;6.60;34.50
28947;DHT22;16052;50.930;5.326;2023-04-06T04:44:01;6.80;24.50
28947;DHT22;16052;50.930;5.326;2023-04-06T04:46:27;6.90;20.30
28947;DHT22;16052;50.930;5.326;2023-04-06T04:48:52;6.90;23.10
28947;DHT22;16052;50.930;5.326;2023-04-06T04:51:18;6.80;24.70
28947;DHT22;16052;50.930;5.326;2023-04-06T04:53:45;6.80;25.90
28947;DHT22;16052;50.930;5.326;2023-04-06T04:56:11;6.70;27.50
28947;DHT22;16052;50.930;5.326;2023-04-06T04:58:36;6.80;26.30
28947;DHT22;16052;50.930;5.326;2023-04-06T05:01:02;7.00;24.10
28947;DHT22;16052;50.930;5.326;2023-04-06T05:03:28;7.10;24.40
28947;DHT22;16052;50.930;5.326;2023-04-06T05:05:54;7.30;18.40
28947;DHT22;16052;50.930;5.326;2023-04-06T05:08:20;7.30;11.30
28947;DHT22;16052;50.930;5.326;2023-04-06T05:10:45;7.30;13.70
28947;DHT22;16052;50.930;5.326;2023-04-06T05:13:12;7.60;7.70
28947;DHT22;16052;50.930;5.326;2023-04-06T05:15:38;7.60;5.70
28947;DHT22;16052;50.930;5.326;2023-04-06T05:18:04;7.60;5.20
28947;DHT22;16052;50.930;5.326;2023-04-06T05:20:30;7.50;5.20
28947;DHT22;16052;50.930;5.326;2023-04-06T05:22:56;7.40;8.80
28947;DHT22;16052;50.930;5.326;2023-04-06T05:25:22;7.20;14.70
28947;DHT22;16052;50.930;5.326;2023-04-06T05:27:47;7.30;14.90
28947;DHT22;16052;50.930;5.326;2023-04-06T05:30:13;7.20;14.70
28947;DHT22;16052;50.930;5.326;2023-04-06T05:32:40;7.20;15.20
28947;DHT22;16052;50.930;5.326;2023-04-06T05:35:06;7.10;15.30
28947;DHT22;16052;50.930;5.326;2023-04-06T05:37:31;7.20;17.30
28947;DHT22;16052;50.930;5.326;2023-04-06T05:39:57;7.10;17.40
28947;DHT22;16052;50.930;5.326;2023-04-06T05:42:23;7.10;20.70
28947;DHT22;16052;50.930;5.326;2023-04-06T05:44:48;7.00;21.30
28947;DHT22;16052;50.930;5.326;2023-04-06T05:47:14;7.00;23.40
28947;DHT22;16052;50.930;5.326;2023-04-06T05:49:42;7.10;22.50
28947;DHT22;16052;50.930;5.326;2023-04-06T05:52:08;7.20;19.30
28947;DHT22;16052;50.930;5.326;2023-04-06T05:54:35;7.20;19.50
28947;DHT22;16052;50.930;5.326;2023-04-06T05:57:02;7.40;16.50
28947;DHT22;16052;50.930;5.326;2023-04-06T05:59:30;7.40;14.50
28947;DHT22;16052;50.930;5.326;2023-04-06T06:01:55;7.30;14.80
28947;DHT22;16052;50.930;5.326;2023-04-06T06:04:21;7.40;14.80
28947;DHT22;16052;50.930;5.326;2023-04-06T06:06:47;7.50;11.10
28947;DHT22;16052;50.930;5.326;2023-04-06T06:09:12;7.60;8.80
28947;DHT22;16052;50.930;5.326;2023-04-06T06:11:38;7.60;9.00
28947;DHT22;16052;50.930;5.326;2023-04-06T06:14:04;7.50;14.50
28947;DHT22;16052;50.930;5.326;2023-04-06T06:16:29;7.50;11.80
28947;DHT22;16052;50.930;5.326;2023-04-06T06:18:55;7.50;16.80
28947;DHT22;16052;50.930;5.326;2023-04-06T06:21:21;7.60;13.60
28947;DHT22;16052;50.930;5.326;2023-04-06T06:23:47;7.60;13.70
28947;DHT22;16052;50.930;5.326;2023-04-06T06:26:14;7.40;17.60
28947;DHT22;16052;50.930;5.326;2023-04-06T06:28:40;7.40;20.40
28947;DHT22;16052;50.930;5.326;2023-04-06T06:31:06;7.40;21.50
28947;DHT22;16052;50.930;5.326;2023-04-06T06:33:32;7.30;24.20
28947;DHT22;16052;50.930;5.326;2023-04-06T06:35:58;7.30;27.60
28947;DHT22;16052;50.930;5.326;2023-04-06T06:38:24;7.20;29.70
28947;DHT22;16052;50.930;5.326;2023-04-06T06:40:51;7.20;28.60
28947;DHT22;16052;50.930;5.326;2023-04-06T06:43:16;7.20;32.20
28947;DHT22;16052;50.930;5.326;2023-04-06T06:45:44;7.00;38.10
28947;DHT22;16052;50.930;5.326;2023-04-06T06:48:09;7.10;39.00
28947;DHT22;16052;50.930;5.326;2023-04-06T06:50:36;7.20;39.30
28947;DHT22;16052;50.930;5.326;2023-04-06T06:53:02;7.30;35.20
28947;DHT22;16052;50.930;5.326;2023-04-06T06:55:27;7.10;40.20
28947;DHT22;16052;50.930;5.326;2023-04-06T06:57:53;7.00;44.60
28947;DHT22;16052;50.930;5.326;2023-04-06T07:00:19;7.10;43.50
28947;DHT22;16052;50.930;5.326;2023-04-06T07:02:49;7.30;40.20
28947;DHT22;16052;50.930;5.326;2023-04-06T07:05:15;7.50;35.80
28947;DHT22;16052;50.930;5.326;2023-04-06T07:07:41;7.60;34.20
28947;DHT22;16052;50.930;5.326;2023-04-06T07:10:07;7.80;28.90
28947;DHT22;16052;50.930;5.326;2023-04-06T07:12:33;7.70;30.70
28947;DHT22;16052;50.930;5.326;2023-04-06T07:15:00;7.80;33.90
28947;DHT22;16052;50.930;5.326;2023-04-06T07:17:26;7.80;32.90
28947;DHT22;16052;50.930;5.326;2023-04-06T07:19:52;7.80;34.80
28947;DHT22;16052;50.930;5.326;2023-04-06T07:22:17;7.80;38.00
28947;DHT22;16052;50.930;5.326;2023-04-06T07:24:43;7.90;38.20
28947;DHT22;16052;50.930;5.326;2023-04-06T07:27:09;8.00;36.20
28947;DHT22;16052;50.930;5.326;2023-04-06T07:29:34;8.00;35.40
28947;DHT22;16052;50.930;5.326;2023-04-06T07:32:00;8.10;40.40
28947;DHT22;16052;50.930;5.326;2023-04-06T07:34:26;8.10;40.00
28947;DHT22;16052;50.930;5.326;2023-04-06T07:36:52;8.20;36.70
28947;DHT22;16052;50.930;5.326;2023-04-06T07:39:20;8.30;37.80
28947;DHT22;16052;50.930;5.326;2023-04-06T07:41:46;8.40;37.80
28947;DHT22;16052;50.930;5.326;2023-04-06T07:44:11;8.60;34.50
28947;DHT22;16052;50.930;5.326;2023-04-06T07:46:37;8.60;35.70
28947;DHT22;16052;50.930;5.326;2023-04-06T07:49:03;8.60;38.30
28947;DHT22;16052;50.930;5.326;2023-04-06T07:51:29;8.50;36.20
28947;DHT22;16052;50.930;5.326;2023-04-06T07:54:01;8.60;39.50
28947;DHT22;16052;50.930;5.326;2023-04-06T07:56:26;8.60;40.60
28947;DHT22;16052;50.930;5.326;2023-04-06T07:58:52;8.60;41.50
28947;DHT22;16052;50.930;5.326;2023-04-06T08:01:27;8.70;40.50
28947;DHT22;16052;50.930;5.326;2023-04-06T08:03:55;8.80;40.60
28947;DHT22;16052;50.930;5.326;2023-04-06T08:06:21;9.00;39.40
28947;DHT22;16052;50.930;5.326;2023-04-06T08:08:48;8.90;39.00
28947;DHT22;16052;50.930;5.326;2023-04-06T08:11:13;8.90;40.60
28947;DHT22;16052;50.930;5.326;2023-04-06T08:13:39;9.00;40.80
28947;DHT22;16052;50.930;5.326;2023-04-06T08:16:05;9.10;36.40
28947;DHT22;16052;50.930;5.326;2023-04-06T08:18:31;9.00;43.50
28947;DHT22;16052;50.930;5.326;2023-04-06T08:20:56;9.10;42.70
28947;DHT22;16052;50.930;5.326;2023-04-06T08:23:22;9.30;38.10
28947;DHT22;16052;50.930;5.326;2023-04-06T08:25:48;9.30;38.50
28947;DHT22;16052;50.930;5.326;2023-04-06T08:28:14;9.30;40.20
28947;DHT22;16052;50.930;5.326;2023-04-06T08:30:41;9.30;37.80
28947;DHT22;16052;50.930;5.326;2023-04-06T08:33:07;9.40;38.20
28947;DHT22;16052;50.930;5.326;2023-04-06T08:35:32;9.40;37.90
28947;DHT22;16052;50.930;5.326;2023-04-06T08:37:58;9.40;39.40
28947;DHT22;16052;50.930;5.326;2023-04-06T08:40:27;9.50;33.00
28947;DHT22;16052;50.930;5.326;2023-04-06T08:42:55;9.50;31.90
28947;DHT22;16052;50.930;5.326;2023-04-06T08:45:21;9.60;34.90
28947;DHT22;16052;50.930;5.326;2023-04-06T08:47:51;9.70;25.70
28947;DHT22;16052;50.930;5.326;2023-04-06T08:50:18;9.70;27.40
28947;DHT22;16052;50.930;5.326;2023-04-06T08:52:48;9.80;22.30
28947;DHT22;16052;50.930;5.326;2023-04-06T08:55:14;9.60;24.70
28947;DHT22;16052;50.930;5.326;2023-04-06T08:57:41;9.60;30.70
28947;DHT22;16052;50.930;5.326;2023-04-06T09:00:09;9.60;27.90
28947;DHT22;16052;50.930;5.326;2023-04-06T09:02:39;9.60;29.10
28947;DHT22;16052;50.930;5.326;2023-04-06T09:05:08;9.50;33.10
28947;DHT22;16052;50.930;5.326;2023-04-06T09:07:35;9.50;35.90
28947;DHT22;16052;50.930;5.326;2023-04-06T09:10:01;9.50;40.60
28947;DHT22;16052;50.930;5.326;2023-04-06T09:12:29;9.50;45.30
28947;DHT22;16052;50.930;5.326;2023-04-06T09:14:55;9.40;49.40
28947;DHT22;16052;50.930;5.326;2023-04-06T09:17:24;9.50;55.60
28947;DHT22;16052;50.930;5.326;2023-04-06T09:19:50;9.50;51.50
28947;DHT22;16052;50.930;5.326;2023-04-06T09:22:17;9.50;51.60
28947;DHT22;16052;50.930;5.326;2023-04-06T09:27:10;9.70;55.50
28947;DHT22;16052;50.930;5.326;2023-04-06T09:29:36;9.70;53.60
28947;DHT22;16052;50.930;5.326;2023-04-06T09:32:07;9.60;56.20
28947;DHT22;16052;50.930;5.326;2023-04-06T09:34:40;9.60;60.00
28947;DHT22;16052;50.930;5.326;2023-04-06T09:37:15;9.70;59.70
28947;DHT22;16052;50.930;5.326;2023-04-06T09:39:43;9.60;66.30
28947;DHT22;16052;50.930;5.326;2023-04-06T09:42:08;9.60;76.40
28947;DHT22;16052;50.930;5.326;2023-04-06T09:44:35;9.50;87.20
28947;DHT22;16052;50.930;5.326;2023-04-06T09:47:00;9.50;90.80
28947;DHT22;16052;50.930;5.326;2023-04-06T09:49:30;9.30;94.60
28947;DHT22;16052;50.930;5.326;2023-04-06T09:52:02;9.20;97.60
28947;DHT22;16052;50.930;5.326;2023-04-06T09:54:29;9.20;98.20
28947;DHT22;16052;50.930;5.326;2023-04-06T10:00:08;9.20;99.90
28947;DHT22;16052;50.930;5.326;2023-04-06T10:02:50;9.20;99.90
28947;DHT22;16052;50.930;5.326;2023-04-06T10:05:26;9.30;99.90
28947;DHT22;16052;50.930;5.326;2023-04-06T10:07:57;9.40;98.50
28947;DHT22;16052;50.930;5.326;2023-04-06T10:10:25;9.20;99.30
28947;DHT22;16052;50.930;5.326;2023-04-06T10:12:52;9.30;99.80
28947;DHT22;16052;50.930;5.326;2023-04-06T10:15:18;9.40;99.10
28947;DHT22;16052;50.930;5.326;2023-04-06T10:17:45;9.30;99.90
28947;DHT22;16052;50.930;5.326;2023-04-06T10:20:23;9.30;99.90
28947;DHT22;16052;50.930;5.326;2023-04-06T10:23:01;9.30;99.90
28947;DHT22;16052;50.930;5.326;2023-04-06T10:25:30;9.30;99.90
28947;DHT22;16052;50.930;5.326;2023-04-06T10:28:05;9.40;99.90
28947;DHT22;16052;50.930;5.326;2023-04-06T10:30:37;9.40;99.90
28947;DHT22;16052;50.930;5.326;2023-04-06T10:33:20;9.30;99.90
28947;DHT22;16052;50.930;5.326;2023-04-06T10:35:46;9.20;99.90
28947;DHT22;16052;50.930;5.326;2023-04-06T10:38:12;9.30;99.90
28947;DHT22;16052;50.930;5.326;2023-04-06T10:40:40;9.10;99.90
28947;DHT22;16052;50.930;5.326;2023-04-06T10:43:20;9.20;99.90
28947;DHT22;16052;50.930;5.326;2023-04-06T10:45:55;9.10;99.90
28947;DHT22;16052;50.930;5.326;2023-04-06T10:48:21;9.20;99.90
28947;DHT22;16052;50.930;5.326;2023-04-06T10:50:48;9.20;99.90
28947;DHT22;16052;50.930;5.326;2023-04-06T10:53:26;9.20;99.90
28947;DHT22;16052;50.930;5.326;2023-04-06T10:55:55;9.20;99.90
28947;DHT22;16052;50.930;5.326;2023-04-06T10:58:25;9.30;99.90
28947;DHT22;16052;50.930;5.326;2023-04-06T11:00:51;9.40;99.90
28947;DHT22;16052;50.930;5.326;2023-04-06T11:03:17;9.40;99.90
28947;DHT22;16052;50.930;5.326;2023-04-06T11:05:52;9.40;99.90
28947;DHT22;16052;50.930;5.326;2023-04-06T11:08:29;9.20;99.90
28947;DHT22;16052;50.930;5.326;2023-04-06T11:13:42;9.10;99.90
28947;DHT22;16052;50.930;5.326;2023-04-06T11:16:18;8.90;99.90
28947;DHT22;16052;50.930;5.326;2023-04-06T11:19:03;8.80;99.90
28947;DHT22;16052;50.930;5.326;2023-04-06T11:21:46;8.80;99.90
28947;DHT22;16052;50.930;5.326;2023-04-06T11:24:22;8.90;99.90
28947;DHT22;16052;50.930;5.326;2023-04-06T11:29:21;9.00;99.90
28947;DHT22;16052;50.930;5.326;2023-04-06T11:31:49;9.00;99.90
28947;DHT22;16052;50.930;5.326;2023-04-06T11:34:20;9.00;99.90
28947;DHT22;16052;50.930;5.326;2023-04-06T11:36:47;9.00;99.90
28947;DHT22;16052;50.930;5.326;2023-04-06T11:39:18;9.00;99.90
28947;DHT22;16052;50.930;5.326;2023-04-06T11:41:52;9.00;99.90
28947;DHT22;16052;50.930;5.326;2023-04-06T11:44:49;9.00;99.90
28947;DHT22;16052;50.930;5.326;2023-04-06T11:47:15;9.10;99.90
28947;DHT22;16052;50.930;5.326;2023-04-06T11:49:42;9.10;99.90
28947;DHT22;16052;50.930;5.326;2023-04-06T11:52:21;9.10;99.90
28947;DHT22;16052;50.930;5.326;2023-04-06T11:54:48;9.10;99.90
28947;DHT22;16052;50.930;5.326;2023-04-06T11:57:15;9.10;99.90
28947;DHT22;16052;50.930;5.326;2023-04-06T11:59:42;9.10;99.90
28947;DHT22;16052;50.930;5.326;2023-04-06T12:02:08;9.10;99.90
28947;DHT22;16052;50.930;5.326;2023-04-06T12:04:34;9.00;99.90
28947;DHT22;16052;50.930;5.326;2023-04-06T12:07:00;9.10;99.90
28947;DHT22;16052;50.930;5.326;2023-04-06T12:09:26;9.10;99.90
28947;DHT22;16052;50.930;5.326;2023-04-06T12:11:52;9.00;99.90
28947;DHT22;16052;50.930;5.326;2023-04-06T12:14:17;9.00;99.90
28947;DHT22;16052;50.930;5.326;2023-04-06T12:16:43;8.90;99.90
28947;DHT22;16052;50.930;5.326;2023-04-06T12:19:09;9.00;99.90
28947;DHT22;16052;50.930;5.326;2023-04-06T12:21:35;9.10;99.90
28947;DHT22;16052;50.930;5.326;2023-04-06T12:24:05;9.10;99.90
28947;DHT22;16052;50.930;5.326;2023-04-06T12:26:33;9.10;99.90
28947;DHT22;16052;50.930;5.326;2023-04-06T12:29:00;9.20;99.90
28947;DHT22;16052;50.930;5.326;2023-04-06T12:31:32;9.20;99.90
28947;DHT22;16052;50.930;5.326;2023-04-06T12:33:58;9.00;99.90
28947;DHT22;16052;50.930;5.326;2023-04-06T12:36:23;9.10;99.90
28947;DHT22;16052;50.930;5.326;2023-04-06T12:38:50;9.10;99.90
28947;DHT22;16052;50.930;5.326;2023-04-06T12:41:17;9.10;99.90
28947;DHT22;16052;50.930;5.326;2023-04-06T12:43:44;9.10;99.90
28947;DHT22;16052;50.930;5.326;2023-04-06T12:46:10;9.00;99.90
28947;DHT22;16052;50.930;5.326;2023-04-06T12:48:36;9.00;99.90
28947;DHT22;16052;50.930;5.326;2023-04-06T12:51:04;9.00;99.90
28947;DHT22;16052;50.930;5.326;2023-04-06T12:53:30;9.00;99.90
28947;DHT22;16052;50.930;5.326;2023-04-06T12:55:57;9.10;99.90
28947;DHT22;16052;50.930;5.326;2023-04-06T12:58:24;9.00;99.90
28947;DHT22;16052;50.930;5.326;2023-04-06T13:00:52;8.90;99.90
28947;DHT22;16052;50.930;5.326;2023-04-06T13:03:21;8.90;99.90
28947;DHT22;16052;50.930;5.326;2023-04-06T13:05:48;8.80;99.90
28947;DHT22;16052;50.930;5.326;2023-04-06T13:08:14;8.90;99.90
28947;DHT22;16052;50.930;5.326;2023-04-06T13:10:48;8.90;99.90
28947;DHT22;16052;50.930;5.326;2023-04-06T13:13:17;8.90;99.90
28947;DHT22;16052;50.930;5.326;2023-04-06T13:15:42;8.80;99.90
28947;DHT22;16052;50.930;5.326;2023-04-06T13:18:09;8.90;99.90
28947;DHT22;16052;50.930;5.326;2023-04-06T13:20:35;8.90;99.90
28947;DHT22;16052;50.930;5.326;2023-04-06T13:23:01;8.90;99.90
28947;DHT22;16052;50.930;5.326;2023-04-06T13:25:27;9.00;99.90
28947;DHT22;16052;50.930;5.326;2023-04-06T13:27:53;9.10;99.90
28947;DHT22;16052;50.930;5.326;2023-04-06T13:30:20;9.00;99.90
28947;DHT22;16052;50.930;5.326;2023-04-06T13:32:46;9.00;99.90
28947;DHT22;16052;50.930;5.326;2023-04-06T13:35:11;9.00;99.90
28947;DHT22;16052;50.930;5.326;2023-04-06T13:37:37;9.00;99.90
28947;DHT22;16052;50.930;5.326;2023-04-06T13:40:05;8.90;99.90
28947;DHT22;16052;50.930;5.326;2023-04-06T13:42:31;9.00;99.90
28947;DHT22;16052;50.930;5.326;2023-04-06T13:44:58;9.00;99.90
28947;DHT22;16052;50.930;5.326;2023-04-06T13:47:24;9.00;99.90
28947;DHT22;16052;50.930;5.326;2023-04-06T13:49:50;9.00;99.90
28947;DHT22;16052;50.930;5.326;2023-04-06T13:52:17;8.90;99.90
28947;DHT22;16052;50.930;5.326;2023-04-06T13:54:42;9.00;99.90
28947;DHT22;16052;50.930;5.326;2023-04-06T13:57:08;9.00;99.90
28947;DHT22;16052;50.930;5.326;2023-04-06T13:59:34;9.00;99.90
28947;DHT22;16052;50.930;5.326;2023-04-06T14:02:05;9.10;99.90
28947;DHT22;16052;50.930;5.326;2023-04-06T14:04:31;9.20;99.90
28947;DHT22;16052;50.930;5.326;2023-04-06T14:06:58;9.30;99.90
28947;DHT22;16052;50.930;5.326;2023-04-06T14:09:23;9.20;99.90
28947;DHT22;16052;50.930;5.326;2023-04-06T14:11:50;9.20;99.90
28947;DHT22;16052;50.930;5.326;2023-04-06T14:14:16;9.20;99.90
28947;DHT22;16052;50.930;5.326;2023-04-06T14:16:42;9.10;99.90
28947;DHT22;16052;50.930;5.326;2023-04-06T14:19:12;9.20;99.90
28947;DHT22;16052;50.930;5.326;2023-04-06T14:21:38;9.20;99.90
28947;DHT22;16052;50.930;5.326;2023-04-06T14:24:06;9.20;99.90
28947;DHT22;16052;50.930;5.326;2023-04-06T14:26:32;9.00;99.90
28947;DHT22;16052;50.930;5.326;2023-04-06T14:28:59;9.00;99.90
28947;DHT22;16052;50.930;5.326;2023-04-06T14:31:25;9.10;99.90
28947;DHT22;16052;50.930;5.326;2023-04-06T14:33:51;9.10;99.90
28947;DHT22;16052;50.930;5.326;2023-04-06T14:36:19;9.10;99.90
28947;DHT22;16052;50.930;5.326;2023-04-06T14:38:45;9.10;99.90
28947;DHT22;16052;50.930;5.326;2023-04-06T14:41:19;9.10;99.90
28947;DHT22;16052;50.930;5.326;2023-04-06T14:43:46;9.10;99.90
28947;DHT22;16052;50.930;5.326;2023-04-06T14:46:12;9.00;99.90
28947;DHT22;16052;50.930;5.326;2023-04-06T14:48:38;9.10;99.90
28947;DHT22;16052;50.930;5.326;2023-04-06T14:51:04;9.00;99.90
28947;DHT22;16052;50.930;5.326;2023-04-06T14:53:29;8.90;99.90
28947;DHT22;16052;50.930;5.326;2023-04-06T14:55:56;8.90;99.90
28947;DHT22;16052;50.930;5.326;2023-04-06T14:58:22;8.90;99.90
28947;DHT22;16052;50.930;5.326;2023-04-06T15:00:48;8.90;99.90
28947;DHT22;16052;50.930;5.326;2023-04-06T15:03:14;8.90;99.90
28947;DHT22;16052;50.930;5.326;2023-04-06T15:05:40;9.00;99.90
28947;DHT22;16052;50.930;5.326;2023-04-06T15:08:06;9.10;99.90
28947;DHT22;16052;50.930;5.326;2023-04-06T15:10:35;9.00;99.90
28947;DHT22;16052;50.930;5.326;2023-04-06T15:13:01;9.00;99.90
28947;DHT22;16052;50.930;5.326;2023-04-06T15:15:28;9.00;99.90
28947;DHT22;16052;50.930;5.326;2023-04-06T15:17:54;9.10;99.90
28947;DHT22;16052;50.930;5.326;2023-04-06T15:20:19;9.10;99.90
28947;DHT22;16052;50.930;5.326;2023-04-06T15:22:45;9.10;99.90
28947;DHT22;16052;50.930;5.326;2023-04-06T15:25:11;9.00;99.90
28947;DHT22;16052;50.930;5.326;2023-04-06T15:27:37;9.00;99.90
28947;DHT22;16052;50.930;5.326;2023-04-06T15:30:03;9.00;99.90
28947;DHT22;16052;50.930;5.326;2023-04-06T15:32:29;9.10;99.90
28947;DHT22;16052;50.930;5.326;2023-04-06T15:34:57;9.10;99.90
28947;DHT22;16052;50.930;5.326;2023-04-06T15:37:23;9.00;99.90
28947;DHT22;16052;50.930;5.326;2023-04-06T15:39:48;9.00;99.90
28947;DHT22;16052;50.930;5.326;2023-04-06T15:42:14;9.10;99.90
28947;DHT22;16052;50.930;5.326;2023-04-06T15:44:40;9.00;99.90
28947;DHT22;16052;50.930;5.326;2023-04-06T15:47:05;9.00;99.90
28947;DHT22;16052;50.930;5.326;2023-04-06T15:49:32;9.10;99.90
28947;DHT22;16052;50.930;5.326;2023-04-06T15:51:59;9.20;99.90
28947;DHT22;16052;50.930;5.326;2023-04-06T15:54:25;9.20;99.90
28947;DHT22;16052;50.930;5.326;2023-04-06T15:56:50;9.20;99.90
28947;DHT22;16052;50.930;5.326;2023-04-06T15:59:16;9.20;99.90